Time;durP1;ratioP1;P1;durP2;ratioP2;P2;SDS_P1;SDS_P2;PMS_P1;PMS_P2;Temp;Humidity;BMP_temperature;BMP_pressure;BME280_temperature;BME280_humidity;BME280_pressure;Samples;Min_cycle;Max_cycle;Signal;HPM_P1;HPM_P2
2023/06/12 00:01:17;;;;;;;5.25;4.75;;;;;;;;;;5032664;28;20280;-65
2023/06/12 00:03:47;;;;;;;5.18;4.68;;;;;;;;;;5019591;28;20662;-64
2023/06/12 00:06:18;;;;;;;5.10;4.60;;;;;;;;;;5023382;28;20408;-64
2023/06/12 00:08:45;;;;;;;5.18;4.57;;;;;;;;;;5016406;28;20206;-67
2023/06/12 00:11:13;;;;;;;5.00;4.60;;;;;;;;;;5036717;28;20246;-65
2023/06/12 00:13:44;;;;;;;4.53;4.13;;;;;;;;;;5024445;28;20240;-65
2023/06/12 00:16:11;;;;;;;5.53;4.82;;;;;;;;;;5022959;28;20273;-64
2023/06/12 00:18:40;;;;;;;4.85;4.40;;;;;;;;;;5023478;28;20202;-67
2023/06/12 00:21:10;;;;;;;5.20;4.70;;;;;;;;;;5020433;28;20273;-66
2023/06/12 00:23:39;;;;;;;5.05;4.65;;;;;;;;;;5025988;28;20643;-66
2023/06/12 00:26:06;;;;;;;5.80;5.03;;;;;;;;;;5024090;28;20227;-66
2023/06/12 00:28:33;;;;;;;5.40;4.90;;;;;;;;;;5030931;28;20211;-65
2023/06/12 00:31:01;;;;;;;5.68;4.55;;;;;;;;;;5025726;28;20231;-64
2023/06/12 00:33:28;;;;;;;5.38;4.93;;;;;;;;;;5022011;28;20226;-64
2023/06/12 00:35:56;;;;;;;9.00;5.38;;;;;;;;;;5036410;28;20257;-65
2023/06/12 00:38:23;;;;;;;6.18;4.22;;;;;;;;;;5024841;28;20707;-63
2023/06/12 00:40:50;;;;;;;4.97;4.47;;;;;;;;;;5031066;28;20222;-64
2023/06/12 00:43:18;;;;;;;4.50;4.18;;;;;;;;;;5029163;28;20215;-64
2023/06/12 00:45:46;;;;;;;5.85;4.68;;;;;;;;;;5027226;28;20223;-66
2023/06/12 00:48:14;;;;;;;5.32;4.82;;;;;;;;;;5035866;28;20206;-64
2023/06/12 00:50:44;;;;;;;5.10;4.60;;;;;;;;;;5035820;28;20199;-65
2023/06/12 00:53:12;;;;;;;4.90;4.40;;;;;;;;;;5020299;28;20627;-68
2023/06/12 00:55:39;;;;;;;6.03;5.15;;;;;;;;;;5029262;28;20207;-64
2023/06/12 00:58:07;;;;;;;5.10;4.60;;;;;;;;;;5037937;28;20260;-65
2023/06/12 01:00:38;;;;;;;4.70;4.30;;;;;;;;;;5033457;28;20260;-66
2023/06/12 01:03:07;;;;;;;5.25;4.75;;;;;;;;;;5031303;28;20254;-64
2023/06/12 01:05:38;;;;;;;5.00;4.60;;;;;;;;;;5025245;28;20203;-64
2023/06/12 01:08:07;;;;;;;5.68;5.18;;;;;;;;;;5025891;28;20214;-64
2023/06/12 01:10:36;;;;;;;5.50;5.00;;;;;;;;;;5029043;28;20223;-64
2023/06/12 01:13:04;;;;;;;5.20;4.70;;;;;;;;;;5023321;28;20685;-63
2023/06/12 01:15:31;;;;;;;5.28;4.88;;;;;;;;;;5015472;28;20199;-64
2023/06/12 01:17:59;;;;;;;8.38;5.30;;;;;;;;;;5028435;28;20203;-66
2023/06/12 01:20:26;;;;;;;5.35;4.88;;;;;;;;;;5024000;28;20207;-64
2023/06/12 01:22:54;;;;;;;6.30;5.13;;;;;;;;;;5033105;28;20786;-64
2023/06/12 01:25:32;;;;;;;5.50;5.00;;;;;;;;;;5021251;28;20262;-66
2023/06/12 01:28:18;;;;;;;5.80;4.75;;;;;;;;;;5021248;28;20660;-64
2023/06/12 01:30:54;;;;;;;5.47;4.83;;;;;;;;;;5029756;28;20206;-65
2023/06/12 01:33:30;;;;;;;5.37;4.87;;;;;;;;;;5025269;28;20233;-67
2023/06/12 01:35:59;;;;;;;6.83;5.00;;;;;;;;;;5033352;28;20571;-65
2023/06/12 01:38:28;;;;;;;6.07;5.27;;;;;;;;;;5029865;28;20207;-67
2023/06/12 01:40:57;;;;;;;6.80;5.03;;;;;;;;;;5028736;28;20199;-66
2023/06/12 01:43:24;;;;;;;5.43;4.93;;;;;;;;;;5033856;28;20259;-65
2023/06/12 01:45:52;;;;;;;5.80;5.23;;;;;;;;;;5024747;28;20522;-64
2023/06/12 01:48:19;;;;;;;5.50;4.53;;;;;;;;;;5029208;28;20206;-67
2023/06/12 01:50:47;;;;;;;7.27;5.27;;;;;;;;;;5023291;28;20208;-67
2023/06/12 01:53:15;;;;;;;5.18;4.65;;;;;;;;;;5034862;28;20218;-67
2023/06/12 01:55:44;;;;;;;6.43;5.30;;;;;;;;;;5022995;28;20207;-67
2023/06/12 01:58:11;;;;;;;6.77;5.13;;;;;;;;;;5025209;28;20477;-68
2023/06/12 02:00:40;;;;;;;5.47;4.97;;;;;;;;;;5025600;28;20195;-67
2023/06/12 02:03:08;;;;;;;6.37;5.00;;;;;;;;;;5021116;28;20570;-67
2023/06/12 02:05:35;;;;;;;5.83;5.33;;;;;;;;;;5032680;28;20298;-68
2023/06/12 02:08:02;;;;;;;5.73;5.10;;;;;;;;;;5022875;28;20206;-67
2023/06/12 02:10:30;;;;;;;6.87;5.87;;;;;;;;;;5030897;28;20203;-64
2023/06/12 02:12:57;;;;;;;5.77;5.17;;;;;;;;;;5022680;28;20231;-63
2023/06/12 02:15:24;;;;;;;5.47;4.97;;;;;;;;;;5034632;28;20318;-64
2023/06/12 02:17:52;;;;;;;5.83;5.23;;;;;;;;;;5028774;28;20252;-67
2023/06/12 02:20:19;;;;;;;7.87;5.87;;;;;;;;;;5028962;28;20207;-63
2023/06/12 02:22:46;;;;;;;5.87;5.40;;;;;;;;;;5031239;28;20223;-65
2023/06/12 02:25:14;;;;;;;6.20;5.70;;;;;;;;;;5019196;28;20215;-64
2023/06/12 02:27:41;;;;;;;6.10;5.60;;;;;;;;;;5032368;28;20213;-64
2023/06/12 02:30:09;;;;;;;5.93;5.33;;;;;;;;;;5018642;28;20253;-66
2023/06/12 02:32:38;;;;;;;6.07;5.47;;;;;;;;;;5025355;28;20234;-65
2023/06/12 02:35:08;;;;;;;6.13;5.53;;;;;;;;;;5030356;28;20297;-64
2023/06/12 02:37:36;;;;;;;6.27;5.70;;;;;;;;;;5021423;28;20206;-66
2023/06/12 02:40:04;;;;;;;6.10;5.60;;;;;;;;;;5032952;28;20253;-68
2023/06/12 02:42:31;;;;;;;5.90;5.30;;;;;;;;;;5031818;28;20598;-64
2023/06/12 02:44:59;;;;;;;6.50;5.93;;;;;;;;;;5028907;28;20276;-63
2023/06/12 02:47:26;;;;;;;5.97;5.37;;;;;;;;;;5034308;28;20253;-63
2023/06/12 02:49:53;;;;;;;6.30;5.70;;;;;;;;;;5024131;28;20230;-66
2023/06/12 02:52:20;;;;;;;6.23;5.73;;;;;;;;;;5029002;28;20231;-64
2023/06/12 02:54:48;;;;;;;7.87;5.70;;;;;;;;;;5032077;28;20587;-65
2023/06/12 02:57:15;;;;;;;5.90;5.30;;;;;;;;;;5031626;28;20237;-64
2023/06/12 02:59:43;;;;;;;6.73;6.10;;;;;;;;;;5031109;28;20207;-64
2023/06/12 03:02:10;;;;;;;6.63;6.03;;;;;;;;;;5029633;28;20632;-66
2023/06/12 03:04:38;;;;;;;6.30;5.70;;;;;;;;;;5020193;28;20255;-66
2023/06/12 03:07:06;;;;;;;6.03;5.40;;;;;;;;;;5030682;28;20209;-67
2023/06/12 03:09:33;;;;;;;6.93;6.23;;;;;;;;;;5021614;28;20252;-66
2023/06/12 03:12:01;;;;;;;6.40;5.80;;;;;;;;;;5027461;28;20297;-65
2023/06/12 03:14:29;;;;;;;6.43;5.90;;;;;;;;;;5022313;28;20287;-68
2023/06/12 03:16:58;;;;;;;7.33;6.63;;;;;;;;;;5029482;28;20286;-64
2023/06/12 03:19:25;;;;;;;6.80;6.10;;;;;;;;;;5036655;28;20198;-66
2023/06/12 03:21:52;;;;;;;7.80;6.27;;;;;;;;;;5038661;28;20238;-66
2023/06/12 03:24:21;;;;;;;6.97;6.27;;;;;;;;;;5038264;28;20215;-64
2023/06/12 03:26:50;;;;;;;6.43;5.93;;;;;;;;;;5037628;28;20665;-67
2023/06/12 03:29:18;;;;;;;6.80;6.20;;;;;;;;;;5020683;28;20199;-67
2023/06/12 03:31:45;;;;;;;6.80;6.10;;;;;;;;;;5022842;28;20234;-68
2023/06/12 03:34:15;;;;;;;6.47;5.87;;;;;;;;;;5040891;28;20230;-68
2023/06/12 03:36:43;;;;;;;9.07;5.70;;;;;;;;;;5028214;28;20253;-67
2023/06/12 03:39:10;;;;;;;7.23;6.63;;;;;;;;;;5029765;28;20210;-68
2023/06/12 03:41:38;;;;;;;7.53;6.70;;;;;;;;;;5028023;28;20700;-65
2023/06/12 03:44:05;;;;;;;6.50;6.00;;;;;;;;;;5042095;28;20229;-68
2023/06/12 03:46:33;;;;;;;6.60;6.00;;;;;;;;;;5027163;28;20202;-64
2023/06/12 03:49:00;;;;;;;6.90;6.30;;;;;;;;;;5037254;28;20214;-67
2023/06/12 03:51:28;;;;;;;6.83;6.23;;;;;;;;;;5028216;28;20223;-67
2023/06/12 03:53:55;;;;;;;6.83;6.13;;;;;;;;;;5030565;28;20227;-67
2023/06/12 03:56:22;;;;;;;7.80;6.23;;;;;;;;;;5025425;28;20261;-67
2023/06/12 03:58:50;;;;;;;7.63;6.07;;;;;;;;;;5025861;28;20211;-67
2023/06/12 04:01:17;;;;;;;6.90;6.30;;;;;;;;;;5029775;28;20656;-65
2023/06/12 04:03:45;;;;;;;7.80;6.50;;;;;;;;;;5034213;28;20206;-65
2023/06/12 04:06:13;;;;;;;8.03;6.30;;;;;;;;;;5028731;28;20206;-64
2023/06/12 04:08:40;;;;;;;6.70;6.03;;;;;;;;;;5036787;28;20204;-66
2023/06/12 04:11:13;;;;;;;6.63;6.03;;;;;;;;;;5016773;28;20243;-65
2023/06/12 04:13:42;;;;;;;7.00;6.30;;;;;;;;;;5012010;28;20299;-66
2023/06/12 04:16:10;;;;;;;7.73;6.90;;;;;;;;;;5009647;28;20203;-64
2023/06/12 04:18:38;;;;;;;9.67;7.00;;;;;;;;;;5006585;28;20218;-67
2023/06/12 04:21:07;;;;;;;6.87;6.17;;;;;;;;;;5018360;28;20230;-67
2023/06/12 04:23:37;;;;;;;7.30;6.57;;;;;;;;;;5016290;28;20221;-66
2023/06/12 04:26:06;;;;;;;7.07;6.37;;;;;;;;;;5017506;28;20206;-64
2023/06/12 04:28:35;;;;;;;7.20;6.50;;;;;;;;;;5022582;28;20321;-66
2023/06/12 04:31:03;;;;;;;7.03;6.33;;;;;;;;;;5020642;28;20321;-64
2023/06/12 04:33:32;;;;;;;6.97;6.33;;;;;;;;;;5021849;28;20206;-64
2023/06/12 04:36:01;;;;;;;7.07;6.53;;;;;;;;;;5016207;28;20594;-67
2023/06/12 04:38:38;;;;;;;6.40;5.90;;;;;;;;;;5022952;28;20199;-65
2023/06/12 04:41:06;;;;;;;7.40;6.53;;;;;;;;;;5030289;28;20229;-69
2023/06/12 04:43:33;;;;;;;6.90;6.30;;;;;;;;;;5019599;28;20293;-68
2023/06/12 04:46:01;;;;;;;7.37;6.67;;;;;;;;;;5021920;28;20280;-69
2023/06/12 04:48:28;;;;;;;7.13;6.53;;;;;;;;;;5028675;28;20598;-66
2023/06/12 04:50:56;;;;;;;8.57;6.83;;;;;;;;;;5020922;28;20218;-69
2023/06/12 04:53:27;;;;;;;6.70;6.03;;;;;;;;;;5019489;28;20203;-66
2023/06/12 04:55:56;;;;;;;6.63;6.13;;;;;;;;;;5015184;28;20461;-68
2023/06/12 04:58:24;;;;;;;6.57;6.00;;;;;;;;;;5017982;28;20203;-64
2023/06/12 05:00:55;;;;;;;6.73;6.13;;;;;;;;;;5017892;28;20554;-68
2023/06/12 05:03:25;;;;;;;7.40;6.60;;;;;;;;;;5022962;28;20203;-68
2023/06/12 05:05:56;;;;;;;7.20;6.57;;;;;;;;;;5016651;28;20213;-67
2023/06/12 05:08:24;;;;;;;6.97;6.28;;;;;;;;;;5021716;28;20206;-68
2023/06/12 05:10:51;;;;;;;6.43;5.80;;;;;;;;;;5016699;28;20203;-67
2023/06/12 05:13:19;;;;;;;6.55;5.93;;;;;;;;;;5016538;28;20612;-68
2023/06/12 05:15:47;;;;;;;6.18;5.63;;;;;;;;;;5026493;28;20227;-67
2023/06/12 05:18:18;;;;;;;6.30;5.77;;;;;;;;;;5017213;28;20236;-68
2023/06/12 05:20:45;;;;;;;7.63;6.78;;;;;;;;;;5024446;28;20207;-68
2023/06/12 05:23:12;;;;;;;5.57;5.07;;;;;;;;;;5019493;28;20207;-67
2023/06/12 05:25:40;;;;;;;6.75;5.30;;;;;;;;;;5019305;28;20195;-68
2023/06/12 05:28:07;;;;;;;5.50;5.00;;;;;;;;;;5016074;28;20287;-67
2023/06/12 05:30:35;;;;;;;5.05;4.55;;;;;;;;;;5017849;28;20213;-69
2023/06/12 05:33:04;;;;;;;5.43;4.75;;;;;;;;;;5010092;28;20245;-69
2023/06/12 05:35:31;;;;;;;5.13;4.63;;;;;;;;;;5026590;28;20219;-65
2023/06/12 05:37:59;;;;;;;5.28;4.68;;;;;;;;;;5017346;28;20199;-69
2023/06/12 05:40:26;;;;;;;5.28;4.78;;;;;;;;;;5017088;28;20207;-68
2023/06/12 05:42:54;;;;;;;4.97;4.57;;;;;;;;;;5023988;28;20222;-67
2023/06/12 05:45:21;;;;;;;5.22;4.70;;;;;;;;;;5019780;28;21608;-66
2023/06/12 05:47:49;;;;;;;4.18;3.88;;;;;;;;;;5020897;28;20207;-70
2023/06/12 05:50:18;;;;;;;4.80;4.47;;;;;;;;;;5030689;28;20216;-65
2023/06/12 05:52:46;;;;;;;5.25;4.53;;;;;;;;;;5018314;28;20262;-68
2023/06/12 05:55:13;;;;;;;5.00;4.55;;;;;;;;;;5016762;28;20257;-69
2023/06/12 05:57:41;;;;;;;4.63;4.22;;;;;;;;;;5020192;28;21721;-69
2023/06/12 06:00:11;;;;;;;4.45;4.15;;;;;;;;;;5021532;28;20207;-68
2023/06/12 06:02:39;;;;;;;4.50;4.18;;;;;;;;;;5024703;28;20222;-69
2023/06/12 06:05:09;;;;;;;5.13;4.63;;;;;;;;;;5015533;28;20305;-67
2023/06/12 06:07:38;;;;;;;4.72;4.30;;;;;;;;;;5014775;28;20278;-69
2023/06/12 06:10:06;;;;;;;4.95;4.43;;;;;;;;;;5021556;28;20239;-69
2023/06/12 06:12:33;;;;;;;4.97;4.13;;;;;;;;;;5014444;28;21227;-69
2023/06/12 06:15:00;;;;;;;5.03;4.63;;;;;;;;;;5015312;28;20780;-69
2023/06/12 06:17:28;;;;;;;4.95;4.47;;;;;;;;;;5015772;28;20199;-67
2023/06/12 06:19:55;;;;;;;5.75;4.80;;;;;;;;;;5022435;28;22552;-68
2023/06/12 06:22:24;;;;;;;4.90;4.50;;;;;;;;;;5008017;28;20207;-69
2023/06/12 06:24:52;;;;;;;5.55;5.05;;;;;;;;;;5015205;28;20280;-67
2023/06/12 06:27:20;;;;;;;6.00;5.15;;;;;;;;;;5010007;28;20203;-64
2023/06/12 06:29:48;;;;;;;5.20;4.80;;;;;;;;;;5010282;28;20203;-67
2023/06/12 06:32:17;;;;;;;5.85;5.00;;;;;;;;;;5023893;28;20285;-69
2023/06/12 06:34:45;;;;;;;5.88;5.18;;;;;;;;;;5016113;28;20231;-65
2023/06/12 06:37:13;;;;;;;5.47;5.03;;;;;;;;;;5018836;28;20204;-67
2023/06/12 06:39:40;;;;;;;7.03;5.35;;;;;;;;;;5019049;28;20217;-68
2023/06/12 06:42:08;;;;;;;5.25;4.75;;;;;;;;;;5016460;28;20225;-69
2023/06/12 06:44:35;;;;;;;5.45;4.90;;;;;;;;;;5015447;28;20684;-68
2023/06/12 06:47:03;;;;;;;6.15;5.55;;;;;;;;;;5023191;28;20217;-68
2023/06/12 06:49:31;;;;;;;5.90;5.35;;;;;;;;;;5024614;28;20199;-67
2023/06/12 06:51:58;;;;;;;5.90;5.25;;;;;;;;;;5026964;28;20585;-67
2023/06/12 06:54:26;;;;;;;5.82;5.32;;;;;;;;;;5019633;28;20253;-66
2023/06/12 06:56:53;;;;;;;5.68;5.18;;;;;;;;;;5025107;28;20210;-66
2023/06/12 06:59:20;;;;;;;5.75;5.20;;;;;;;;;;5016342;28;20203;-67
2023/06/12 07:01:48;;;;;;;6.18;5.25;;;;;;;;;;5021956;28;20409;-67
2023/06/12 07:04:15;;;;;;;5.38;4.95;;;;;;;;;;5033704;28;20207;-67
2023/06/12 07:06:43;;;;;;;5.20;4.80;;;;;;;;;;5017681;28;20504;-65
2023/06/12 07:09:11;;;;;;;5.82;5.22;;;;;;;;;;5030290;28;20229;-65
2023/06/12 07:11:38;;;;;;;6.00;5.45;;;;;;;;;;5023168;28;20700;-65
2023/06/12 07:14:05;;;;;;;6.57;5.32;;;;;;;;;;5020842;28;20903;-63
2023/06/12 07:16:33;;;;;;;5.50;4.80;;;;;;;;;;5023195;28;20222;-66
2023/06/12 07:19:00;;;;;;;6.13;5.57;;;;;;;;;;5021893;28;20211;-69
2023/06/12 07:21:28;;;;;;;7.90;5.30;;;;;;;;;;5021044;28;20218;-69
2023/06/12 07:23:55;;;;;;;5.80;5.07;;;;;;;;;;5029145;28;20217;-69
2023/06/12 07:26:23;;;;;;;5.22;4.82;;;;;;;;;;5027315;28;20780;-69
2023/06/12 07:28:55;;;;;;;5.93;5.43;;;;;;;;;;5015414;28;20207;-67
2023/06/12 07:31:27;;;;;;;5.57;4.90;;;;;;;;;;5024150;28;20321;-69
2023/06/12 07:33:55;;;;;;;5.32;4.82;;;;;;;;;;5011699;28;20290;-69
2023/06/12 07:36:22;;;;;;;7.72;4.97;;;;;;;;;;5013330;28;20698;-69
2023/06/12 07:38:50;;;;;;;6.95;5.63;;;;;;;;;;5023908;28;20643;-69
2023/06/12 07:41:18;;;;;;;5.95;4.95;;;;;;;;;;5015430;28;20230;-68
2023/06/12 07:43:46;;;;;;;6.60;5.57;;;;;;;;;;5012911;28;20210;-69
2023/06/12 07:46:14;;;;;;;5.55;5.15;;;;;;;;;;5022291;28;20210;-69
2023/06/12 07:48:42;;;;;;;5.35;4.85;;;;;;;;;;5016565;28;20310;-69
2023/06/12 07:51:09;;;;;;;8.40;5.03;;;;;;;;;;5018241;28;20223;-70
2023/06/12 07:53:39;;;;;;;5.57;5.07;;;;;;;;;;5008142;28;20641;-67
2023/06/12 07:56:07;;;;;;;5.10;4.70;;;;;;;;;;5017977;28;20388;-68
2023/06/12 07:58:35;;;;;;;5.20;4.78;;;;;;;;;;5017342;28;20200;-66
2023/06/12 08:01:05;;;;;;;5.47;5.00;;;;;;;;;;5012438;28;20313;-64
2023/06/12 08:03:38;;;;;;;5.82;5.25;;;;;;;;;;5015969;28;20815;-68
2023/06/12 08:06:09;;;;;;;6.40;5.40;;;;;;;;;;5006306;28;20210;-68
2023/06/12 08:08:43;;;;;;;5.25;4.75;;;;;;;;;;5013635;28;20517;-66
2023/06/12 08:11:11;;;;;;;6.50;4.55;;;;;;;;;;5013119;28;20227;-68
2023/06/12 08:13:40;;;;;;;5.60;4.90;;;;;;;;;;5020061;28;20740;-68
2023/06/12 08:16:08;;;;;;;6.32;4.70;;;;;;;;;;5011768;28;20242;-67
2023/06/12 08:18:36;;;;;;;5.60;4.60;;;;;;;;;;5018509;28;20205;-68
2023/06/12 08:21:03;;;;;;;4.70;4.30;;;;;;;;;;5006866;28;20237;-67
2023/06/12 08:23:31;;;;;;;5.20;4.80;;;;;;;;;;5015220;28;20315;-68
2023/06/12 08:25:58;;;;;;;5.40;4.57;;;;;;;;;;5021984;28;20203;-68
2023/06/12 08:28:26;;;;;;;4.90;4.20;;;;;;;;;;5014429;28;20208;-68
2023/06/12 08:30:57;;;;;;;5.03;4.40;;;;;;;;;;5015867;28;20195;-69
2023/06/12 08:33:25;;;;;;;5.82;4.63;;;;;;;;;;5013477;28;20203;-66
2023/06/12 08:35:53;;;;;;;5.22;4.47;;;;;;;;;;5014082;28;20237;-67
2023/06/12 08:38:22;;;;;;;4.82;4.43;;;;;;;;;;5021294;28;20214;-67
2023/06/12 08:40:53;;;;;;;5.35;4.38;;;;;;;;;;5018359;28;20422;-67
2023/06/12 08:43:21;;;;;;;5.13;4.72;;;;;;;;;;5018127;28;20207;-67
2023/06/12 08:45:51;;;;;;;5.75;4.72;;;;;;;;;;5013709;28;20277;-69
2023/06/12 08:48:20;;;;;;;4.88;4.47;;;;;;;;;;5023468;28;20461;-68
2023/06/12 08:50:48;;;;;;;4.53;4.13;;;;;;;;;;5025879;28;20207;-67
2023/06/12 08:53:17;;;;;;;5.20;4.32;;;;;;;;;;5016338;28;20211;-67
2023/06/12 08:55:45;;;;;;;6.68;4.57;;;;;;;;;;5029901;28;20235;-69
2023/06/12 08:58:13;;;;;;;5.38;4.57;;;;;;;;;;5022398;28;20202;-68
2023/06/12 09:00:41;;;;;;;5.15;4.70;;;;;;;;;;5015073;28;20662;-66
2023/06/12 09:03:08;;;;;;;4.75;4.45;;;;;;;;;;5020433;28;20224;-69
2023/06/12 09:05:37;;;;;;;6.03;4.40;;;;;;;;;;5019545;28;20207;-66
2023/06/12 09:08:05;;;;;;;6.63;4.28;;;;;;;;;;5022842;28;20281;-68
2023/06/12 09:10:33;;;;;;;4.80;4.40;;;;;;;;;;5017687;28;20203;-65
2023/06/12 09:13:11;;;;;;;5.90;5.00;;;;;;;;;;5014200;28;20321;-65
2023/06/12 09:15:39;;;;;;;5.20;4.70;;;;;;;;;;5010038;28;20222;-67
2023/06/12 09:18:11;;;;;;;5.05;4.20;;;;;;;;;;5018208;28;20207;-65
2023/06/12 09:20:39;;;;;;;5.10;4.38;;;;;;;;;;5030016;28;20320;-66
2023/06/12 09:23:12;;;;;;;4.78;4.38;;;;;;;;;;5014396;28;20672;-67
2023/06/12 09:25:41;;;;;;;5.88;4.15;;;;;;;;;;5025194;28;20213;-65
2023/06/12 09:28:23;;;;;;;6.15;4.35;;;;;;;;;;5026503;28;20407;-66
2023/06/12 09:30:52;;;;;;;4.45;4.10;;;;;;;;;;5018219;28;20207;-65
2023/06/12 09:33:27;;;;;;;4.93;4.40;;;;;;;;;;5020440;28;20891;-67
2023/06/12 09:35:54;;;;;;;5.18;4.70;;;;;;;;;;5014586;28;20249;-65
2023/06/12 09:38:29;;;;;;;7.15;4.55;;;;;;;;;;5021917;28;20202;-67
2023/06/12 09:41:01;;;;;;;5.32;4.47;;;;;;;;;;5026703;28;20206;-65
2023/06/12 09:43:28;;;;;;;5.07;4.57;;;;;;;;;;5024906;28;20203;-65
2023/06/12 09:45:57;;;;;;;5.07;4.50;;;;;;;;;;5013428;28;20417;-65
2023/06/12 09:48:31;;;;;;;4.97;4.47;;;;;;;;;;5023446;28;20207;-63
2023/06/12 09:51:00;;;;;;;4.60;4.20;;;;;;;;;;5043336;28;20225;-65
2023/06/12 09:53:29;;;;;;;4.47;4.07;;;;;;;;;;5016639;28;20217;-65
2023/06/12 09:55:57;;;;;;;4.85;4.35;;;;;;;;;;5014963;28;20226;-67
2023/06/12 09:58:24;;;;;;;6.25;4.45;;;;;;;;;;5016886;28;20207;-68
2023/06/12 10:00:55;;;;;;;4.95;4.40;;;;;;;;;;5016869;28;20691;-68
2023/06/12 10:03:26;;;;;;;6.30;4.68;;;;;;;;;;5025036;28;20205;-68
2023/06/12 10:05:55;;;;;;;5.10;4.60;;;;;;;;;;5022177;28;20250;-68
2023/06/12 10:08:22;;;;;;;5.95;4.40;;;;;;;;;;5023266;28;20223;-68
2023/06/12 10:10:53;;;;;;;5.53;4.50;;;;;;;;;;5026618;28;20218;-69
2023/06/12 10:13:20;;;;;;;5.43;4.50;;;;;;;;;;5024787;28;20205;-68
2023/06/12 10:15:48;;;;;;;5.63;5.00;;;;;;;;;;5024154;28;20223;-67
2023/06/12 10:18:16;;;;;;;4.60;4.20;;;;;;;;;;5013862;28;20379;-68
2023/06/12 10:20:44;;;;;;;5.25;3.90;;;;;;;;;;5023949;28;20199;-68
2023/06/12 10:23:12;;;;;;;5.28;4.10;;;;;;;;;;5010687;28;20237;-67
2023/06/12 10:25:40;;;;;;;4.82;3.88;;;;;;;;;;5022007;28;20305;-69
2023/06/12 10:28:07;;;;;;;6.47;4.35;;;;;;;;;;5028274;28;20264;-68
2023/06/12 10:30:35;;;;;;;6.10;4.15;;;;;;;;;;5031848;28;20213;-68
2023/06/12 10:33:13;;;;;;;6.13;4.32;;;;;;;;;;5018542;28;20226;-69
2023/06/12 10:35:41;;;;;;;4.55;4.07;;;;;;;;;;5023973;28;20225;-68
2023/06/12 10:38:11;;;;;;;6.70;4.43;;;;;;;;;;5032930;28;20766;-66
2023/06/12 10:40:40;;;;;;;4.57;4.28;;;;;;;;;;5019480;28;20249;-68
2023/06/12 10:43:21;;;;;;;4.68;4.28;;;;;;;;;;5028365;28;20199;-66
2023/06/12 10:45:58;;;;;;;7.57;4.68;;;;;;;;;;5019221;28;20246;-69
2023/06/12 10:48:26;;;;;;;4.90;4.50;;;;;;;;;;5021116;28;20207;-66
2023/06/12 10:50:54;;;;;;;5.32;4.53;;;;;;;;;;5025759;28;20207;-67
2023/06/12 10:53:24;;;;;;;4.22;3.92;;;;;;;;;;5021811;28;20302;-67
2023/06/12 10:55:56;;;;;;;4.03;3.72;;;;;;;;;;5023243;28;20223;-66
2023/06/12 10:58:25;;;;;;;5.40;4.22;;;;;;;;;;5028006;28;20279;-68
2023/06/12 11:00:53;;;;;;;9.77;4.55;;;;;;;;;;5028939;28;20238;-66
2023/06/12 11:03:25;;;;;;;4.82;4.15;;;;;;;;;;5023143;28;20209;-68
2023/06/12 11:05:55;;;;;;;5.05;4.60;;;;;;;;;;5020963;28;20696;-67
2023/06/12 11:08:26;;;;;;;5.05;4.57;;;;;;;;;;5021853;28;20209;-69
2023/06/12 11:10:53;;;;;;;5.57;4.88;;;;;;;;;;5026179;28;20214;-67
2023/06/12 11:13:24;;;;;;;5.13;4.63;;;;;;;;;;5026934;28;20888;-66
2023/06/12 11:15:52;;;;;;;4.78;4.30;;;;;;;;;;5021414;28;20241;-67
2023/06/12 11:18:20;;;;;;;4.90;4.35;;;;;;;;;;5027642;28;20615;-67
2023/06/12 11:20:54;;;;;;;5.05;4.38;;;;;;;;;;5024285;28;20199;-68
2023/06/12 11:23:23;;;;;;;8.07;4.90;;;;;;;;;;5021166;28;20207;-68
2023/06/12 11:25:52;;;;;;;4.97;4.45;;;;;;;;;;5021446;28;20436;-68
2023/06/12 11:28:25;;;;;;;5.28;4.70;;;;;;;;;;5021541;28;20490;-67
2023/06/12 11:30:54;;;;;;;4.80;4.22;;;;;;;;;;5023176;28;20206;-65
2023/06/12 11:33:24;;;;;;;5.38;4.88;;;;;;;;;;5026052;28;20213;-68
2023/06/12 11:35:52;;;;;;;4.90;4.40;;;;;;;;;;5022296;28;20700;-67
2023/06/12 11:38:21;;;;;;;6.45;4.45;;;;;;;;;;5024655;28;20657;-65
2023/06/12 11:40:53;;;;;;;5.07;4.60;;;;;;;;;;5025459;28;20200;-67
2023/06/12 11:43:21;;;;;;;5.40;4.78;;;;;;;;;;5025791;28;20199;-67
2023/06/12 11:45:49;;;;;;;5.15;4.63;;;;;;;;;;5019056;28;20213;-68
2023/06/12 11:48:17;;;;;;;6.40;4.38;;;;;;;;;;5029248;28;20318;-68
2023/06/12 11:50:47;;;;;;;5.55;4.75;;;;;;;;;;5027199;28;20211;-67
2023/06/12 11:53:15;;;;;;;6.80;4.32;;;;;;;;;;5021093;28;20329;-66
2023/06/12 11:55:45;;;;;;;4.47;4.07;;;;;;;;;;5028803;28;20206;-66
2023/06/12 11:58:16;;;;;;;5.90;4.70;;;;;;;;;;5019257;28;20210;-67
2023/06/12 12:00:49;;;;;;;4.80;4.20;;;;;;;;;;5023401;28;20202;-67
2023/06/12 12:03:17;;;;;;;4.90;4.00;;;;;;;;;;5029573;28;20266;-67
2023/06/12 12:05:44;;;;;;;6.60;4.53;;;;;;;;;;5025004;28;20203;-66
2023/06/12 12:08:12;;;;;;;6.70;4.60;;;;;;;;;;5026450;28;20665;-67
2023/06/12 12:10:40;;;;;;;4.93;4.53;;;;;;;;;;5018961;28;20312;-65
2023/06/12 12:13:08;;;;;;;5.13;4.63;;;;;;;;;;5019162;28;20250;-67
2023/06/12 12:15:40;;;;;;;4.75;4.38;;;;;;;;;;5030963;28;20207;-67
2023/06/12 12:18:17;;;;;;;5.05;4.63;;;;;;;;;;5020912;28;20206;-66
2023/06/12 12:20:50;;;;;;;5.13;4.20;;;;;;;;;;5023350;28;20610;-66
2023/06/12 12:23:17;;;;;;;4.45;4.05;;;;;;;;;;5026974;28;20223;-68
2023/06/12 12:25:44;;;;;;;4.88;4.35;;;;;;;;;;5030860;28;20206;-68
2023/06/12 12:28:12;;;;;;;5.15;4.63;;;;;;;;;;5037337;28;20198;-67
2023/06/12 12:30:39;;;;;;;5.38;4.88;;;;;;;;;;5021066;28;20666;-67
2023/06/12 12:33:06;;;;;;;5.45;4.95;;;;;;;;;;5036162;28;20236;-65
2023/06/12 12:35:34;;;;;;;4.78;4.38;;;;;;;;;;5023872;28;20215;-67
2023/06/12 12:38:03;;;;;;;4.85;4.45;;;;;;;;;;5032683;28;20223;-68
2023/06/12 12:40:30;;;;;;;4.93;4.35;;;;;;;;;;5020836;28;20210;-67
2023/06/12 12:42:58;;;;;;;4.95;4.55;;;;;;;;;;5022435;28;20219;-68
2023/06/12 12:45:27;;;;;;;4.68;4.20;;;;;;;;;;5029530;28;20301;-68
2023/06/12 12:47:55;;;;;;;6.00;4.53;;;;;;;;;;5035935;28;20203;-67
2023/06/12 12:50:23;;;;;;;4.95;4.30;;;;;;;;;;5036502;28;20255;-68
2023/06/12 12:52:54;;;;;;;4.75;4.35;;;;;;;;;;5030657;28;20655;-68
2023/06/12 12:55:22;;;;;;;4.60;4.20;;;;;;;;;;5032340;28;20213;-68
2023/06/12 12:57:50;;;;;;;4.50;4.20;;;;;;;;;;5028964;28;20230;-68
2023/06/12 13:00:36;;;;;;;5.28;4.20;;;;;;;;;;5027891;28;20413;-68
2023/06/12 13:03:04;;;;;;;4.25;3.95;;;;;;;;;;5030556;28;20237;-65
2023/06/12 13:05:32;;;;;;;4.80;4.35;;;;;;;;;;5021921;28;20199;-68
2023/06/12 13:08:00;;;;;;;4.68;4.28;;;;;;;;;;5039044;28;20326;-68
2023/06/12 13:10:30;;;;;;;6.53;4.40;;;;;;;;;;5027555;28;20684;-67
2023/06/12 13:12:57;;;;;;;6.65;4.30;;;;;;;;;;5031246;28;20619;-67
2023/06/12 13:15:24;;;;;;;4.70;4.30;;;;;;;;;;5025749;28;20198;-68
2023/06/12 13:17:52;;;;;;;4.82;3.95;;;;;;;;;;5036122;28;20242;-68
2023/06/12 13:20:19;;;;;;;4.85;4.40;;;;;;;;;;5023041;28;20200;-65
2023/06/12 13:22:46;;;;;;;4.90;4.38;;;;;;;;;;5023494;28;20265;-67
2023/06/12 13:25:14;;;;;;;4.85;4.40;;;;;;;;;;5039006;28;21596;-67
2023/06/12 13:27:41;;;;;;;6.10;4.07;;;;;;;;;;5023157;28;20527;-66
2023/06/12 13:30:08;;;;;;;6.50;4.68;;;;;;;;;;5022179;28;20206;-67
2023/06/12 13:32:36;;;;;;;5.88;4.32;;;;;;;;;;5026110;28;20223;-67
2023/06/12 13:35:03;;;;;;;7.20;5.63;;;;;;;;;;5022059;28;20304;-66
2023/06/12 13:37:31;;;;;;;6.07;4.50;;;;;;;;;;5017325;28;20222;-66
2023/06/12 13:39:58;;;;;;;9.05;4.50;;;;;;;;;;5020675;28;20211;-68
2023/06/12 13:42:26;;;;;;;5.05;4.65;;;;;;;;;;5037322;28;20277;-67
2023/06/12 13:44:53;;;;;;;4.75;4.35;;;;;;;;;;5037836;28;20573;-67
2023/06/12 13:47:21;;;;;;;6.63;4.25;;;;;;;;;;5034036;28;20657;-67
2023/06/12 13:49:48;;;;;;;4.70;4.30;;;;;;;;;;5026360;28;20300;-67
2023/06/12 13:52:16;;;;;;;5.88;4.32;;;;;;;;;;5023761;28;20310;-66
2023/06/12 13:54:45;;;;;;;4.55;4.25;;;;;;;;;;5018883;28;20711;-66
2023/06/12 13:57:13;;;;;;;6.72;5.10;;;;;;;;;;5025557;28;20268;-68
2023/06/12 13:59:41;;;;;;;6.20;4.95;;;;;;;;;;5022436;28;20203;-67
2023/06/12 14:02:11;;;;;;;4.93;4.53;;;;;;;;;;5022057;28;20225;-67
2023/06/12 14:04:41;;;;;;;5.05;4.55;;;;;;;;;;5018171;28;20593;-67
2023/06/12 14:07:08;;;;;;;5.22;4.47;;;;;;;;;;5020657;28;20229;-67
2023/06/12 14:09:37;;;;;;;5.07;4.57;;;;;;;;;;5024706;28;20433;-68
2023/06/12 14:12:05;;;;;;;5.38;4.88;;;;;;;;;;5026131;28;20225;-66
2023/06/12 14:14:34;;;;;;;4.63;4.32;;;;;;;;;;5020942;28;20203;-67
2023/06/12 14:17:02;;;;;;;5.28;4.75;;;;;;;;;;5027803;28;20238;-67
2023/06/12 14:19:34;;;;;;;5.82;4.57;;;;;;;;;;5028879;28;20201;-67
2023/06/12 14:22:05;;;;;;;5.40;4.90;;;;;;;;;;5023860;28;20230;-67
2023/06/12 14:24:34;;;;;;;6.72;4.88;;;;;;;;;;5015502;28;20221;-65
2023/06/12 14:27:07;;;;;;;5.20;4.70;;;;;;;;;;5015964;28;20210;-66
2023/06/12 14:29:34;;;;;;;5.65;4.80;;;;;;;;;;5016039;28;20215;-65
2023/06/12 14:32:02;;;;;;;5.10;4.70;;;;;;;;;;5022685;28;20240;-65
2023/06/12 14:34:29;;;;;;;5.65;5.18;;;;;;;;;;5018273;28;20254;-64
2023/06/12 14:36:56;;;;;;;6.85;4.78;;;;;;;;;;5030573;28;20235;-65
2023/06/12 14:39:24;;;;;;;5.15;4.72;;;;;;;;;;5026553;28;20200;-65
2023/06/12 14:41:51;;;;;;;5.05;4.50;;;;;;;;;;5019979;28;20774;-65
2023/06/12 14:44:18;;;;;;;5.35;4.85;;;;;;;;;;5018120;28;20195;-66
2023/06/12 14:46:46;;;;;;;5.22;4.63;;;;;;;;;;5026119;28;20295;-65
2023/06/12 14:49:13;;;;;;;7.05;4.90;;;;;;;;;;5025048;28;20221;-66
2023/06/12 14:51:41;;;;;;;5.75;5.15;;;;;;;;;;5023124;28;20249;-65